sensor_id;sensor_type;location;lat;lon;timestamp;temperature;humidity
8896;DHT22;4484;48.928;10.066;2022-07-23T00:00:20;21.60;99.90
8896;DHT22;4484;48.928;10.066;2022-07-23T00:02:47;21.60;99.90
8896;DHT22;4484;48.928;10.066;2022-07-23T00:05:14;21.60;99.90
8896;DHT22;4484;48.928;10.066;2022-07-23T00:07:41;21.70;99.90
8896;DHT22;4484;48.928;10.066;2022-07-23T00:10:08;21.80;99.90
8896;DHT22;4484;48.928;10.066;2022-07-23T00:12:36;21.80;99.90
8896;DHT22;4484;48.928;10.066;2022-07-23T00:15:15;21.80;99.90
8896;DHT22;4484;48.928;10.066;2022-07-23T00:17:42;21.90;99.90
8896;DHT22;4484;48.928;10.066;2022-07-23T00:20:09;22.00;99.90
8896;DHT22;4484;48.928;10.066;2022-07-23T00:22:36;22.00;99.90
8896;DHT22;4484;48.928;10.066;2022-07-23T00:25:11;22.10;99.90
8896;DHT22;4484;48.928;10.066;2022-07-23T00:27:54;22.10;99.90
8896;DHT22;4484;48.928;10.066;2022-07-23T00:30:21;22.20;99.90
8896;DHT22;4484;48.928;10.066;2022-07-23T00:32:50;22.20;99.90
8896;DHT22;4484;48.928;10.066;2022-07-23T00:35:25;22.30;99.90
8896;DHT22;4484;48.928;10.066;2022-07-23T00:37:53;22.30;99.90
8896;DHT22;4484;48.928;10.066;2022-07-23T00:40:21;22.30;99.90
8896;DHT22;4484;48.928;10.066;2022-07-23T00:42:47;22.30;99.90
8896;DHT22;4484;48.928;10.066;2022-07-23T00:45:15;22.30;99.90
8896;DHT22;4484;48.928;10.066;2022-07-23T00:47:42;22.30;99.90
8896;DHT22;4484;48.928;10.066;2022-07-23T00:50:10;22.20;99.90
8896;DHT22;4484;48.928;10.066;2022-07-23T00:52:38;22.20;99.90
8896;DHT22;4484;48.928;10.066;2022-07-23T00:55:06;22.20;99.90
8896;DHT22;4484;48.928;10.066;2022-07-23T00:57:33;22.20;99.90
8896;DHT22;4484;48.928;10.066;2022-07-23T01:00:01;22.20;99.90
8896;DHT22;4484;48.928;10.066;2022-07-23T01:02:28;22.10;99.90
8896;DHT22;4484;48.928;10.066;2022-07-23T01:04:55;22.10;99.90
8896;DHT22;4484;48.928;10.066;2022-07-23T01:07:22;22.10;99.90
8896;DHT22;4484;48.928;10.066;2022-07-23T01:09:51;22.00;99.90
8896;DHT22;4484;48.928;10.066;2022-07-23T01:12:18;22.00;99.90
8896;DHT22;4484;48.928;10.066;2022-07-23T01:14:45;22.00;99.90
8896;DHT22;4484;48.928;10.066;2022-07-23T01:17:12;22.00;99.90
8896;DHT22;4484;48.928;10.066;2022-07-23T01:19:39;22.00;99.90
8896;DHT22;4484;48.928;10.066;2022-07-23T01:22:06;22.10;99.90
8896;DHT22;4484;48.928;10.066;2022-07-23T01:24:33;22.00;99.90
8896;DHT22;4484;48.928;10.066;2022-07-23T01:27:05;22.10;99.90
8896;DHT22;4484;48.928;10.066;2022-07-23T01:29:35;22.10;99.90
8896;DHT22;4484;48.928;10.066;2022-07-23T01:32:06;22.10;99.90
8896;DHT22;4484;48.928;10.066;2022-07-23T01:34:34;22.20;99.90
8896;DHT22;4484;48.928;10.066;2022-07-23T01:37:01;22.20;99.90
8896;DHT22;4484;48.928;10.066;2022-07-23T01:39:29;22.20;99.90
8896;DHT22;4484;48.928;10.066;2022-07-23T01:41:56;22.20;99.90
8896;DHT22;4484;48.928;10.066;2022-07-23T01:44:24;22.20;99.90
8896;DHT22;4484;48.928;10.066;2022-07-23T01:46:51;22.20;99.90
8896;DHT22;4484;48.928;10.066;2022-07-23T01:49:20;22.10;99.90
8896;DHT22;4484;48.928;10.066;2022-07-23T01:51:53;22.10;99.90
8896;DHT22;4484;48.928;10.066;2022-07-23T01:54:33;22.10;99.90
8896;DHT22;4484;48.928;10.066;2022-07-23T01:57:01;22.00;99.90
8896;DHT22;4484;48.928;10.066;2022-07-23T01:59:28;22.00;99.90
8896;DHT22;4484;48.928;10.066;2022-07-23T02:01:56;21.90;99.90
8896;DHT22;4484;48.928;10.066;2022-07-23T02:04:25;21.90;99.90
8896;DHT22;4484;48.928;10.066;2022-07-23T02:06:52;21.80;99.90
8896;DHT22;4484;48.928;10.066;2022-07-23T02:09:20;21.80;99.90
8896;DHT22;4484;48.928;10.066;2022-07-23T02:11:47;21.70;99.90
8896;DHT22;4484;48.928;10.066;2022-07-23T02:14:14;21.70;99.90
8896;DHT22;4484;48.928;10.066;2022-07-23T02:16:41;21.70;99.90
8896;DHT22;4484;48.928;10.066;2022-07-23T02:19:08;21.60;99.90
8896;DHT22;4484;48.928;10.066;2022-07-23T02:21:36;21.60;99.90
8896;DHT22;4484;48.928;10.066;2022-07-23T02:24:04;21.50;99.90
8896;DHT22;4484;48.928;10.066;2022-07-23T02:26:31;21.50;99.90
8896;DHT22;4484;48.928;10.066;2022-07-23T02:29:05;21.50;99.90
8896;DHT22;4484;48.928;10.066;2022-07-23T02:31:32;21.50;99.90
8896;DHT22;4484;48.928;10.066;2022-07-23T02:34:02;21.40;99.90
8896;DHT22;4484;48.928;10.066;2022-07-23T02:36:30;21.40;99.90
8896;DHT22;4484;48.928;10.066;2022-07-23T02:38:58;21.40;99.90
8896;DHT22;4484;48.928;10.066;2022-07-23T02:41:28;21.30;99.90
8896;DHT22;4484;48.928;10.066;2022-07-23T02:43:55;21.30;99.90
8896;DHT22;4484;48.928;10.066;2022-07-23T02:46:22;21.20;99.90
8896;DHT22;4484;48.928;10.066;2022-07-23T02:48:49;21.20;99.90
8896;DHT22;4484;48.928;10.066;2022-07-23T02:51:16;21.20;99.90
8896;DHT22;4484;48.928;10.066;2022-07-23T02:53:51;21.10;99.90
8896;DHT22;4484;48.928;10.066;2022-07-23T02:56:18;21.10;99.90
8896;DHT22;4484;48.928;10.066;2022-07-23T02:58:46;21.00;99.90
8896;DHT22;4484;48.928;10.066;2022-07-23T03:01:13;21.00;99.90
8896;DHT22;4484;48.928;10.066;2022-07-23T03:03:40;20.90;99.90
8896;DHT22;4484;48.928;10.066;2022-07-23T03:06:06;20.90;99.90
8896;DHT22;4484;48.928;10.066;2022-07-23T03:08:34;20.80;99.90
8896;DHT22;4484;48.928;10.066;2022-07-23T03:11:01;20.70;99.90
8896;DHT22;4484;48.928;10.066;2022-07-23T03:13:28;20.60;99.90
8896;DHT22;4484;48.928;10.066;2022-07-23T03:15:57;20.50;99.90
8896;DHT22;4484;48.928;10.066;2022-07-23T03:18:24;20.50;99.90
8896;DHT22;4484;48.928;10.066;2022-07-23T03:20:51;20.50;99.90
8896;DHT22;4484;48.928;10.066;2022-07-23T03:23:18;20.40;99.90
8896;DHT22;4484;48.928;10.066;2022-07-23T03:25:47;20.40;99.90
8896;DHT22;4484;48.928;10.066;2022-07-23T03:28:21;20.40;99.90
8896;DHT22;4484;48.928;10.066;2022-07-23T03:30:47;20.40;99.90
8896;DHT22;4484;48.928;10.066;2022-07-23T03:33:17;20.40;99.90
8896;DHT22;4484;48.928;10.066;2022-07-23T03:35:46;20.50;99.90
8896;DHT22;4484;48.928;10.066;2022-07-23T03:38:21;20.50;99.90
8896;DHT22;4484;48.928;10.066;2022-07-23T03:40:49;20.60;99.90
8896;DHT22;4484;48.928;10.066;2022-07-23T03:43:16;20.60;99.90
8896;DHT22;4484;48.928;10.066;2022-07-23T03:45:45;20.60;99.90
8896;DHT22;4484;48.928;10.066;2022-07-23T03:48:12;20.60;99.90
8896;DHT22;4484;48.928;10.066;2022-07-23T03:50:39;20.60;99.90
8896;DHT22;4484;48.928;10.066;2022-07-23T03:53:06;20.60;99.90
8896;DHT22;4484;48.928;10.066;2022-07-23T03:55:34;20.50;99.90
8896;DHT22;4484;48.928;10.066;2022-07-23T03:58:01;20.50;99.90
8896;DHT22;4484;48.928;10.066;2022-07-23T04:00:28;20.50;99.90
8896;DHT22;4484;48.928;10.066;2022-07-23T04:02:55;20.50;99.90
8896;DHT22;4484;48.928;10.066;2022-07-23T04:05:22;20.50;99.90
8896;DHT22;4484;48.928;10.066;2022-07-23T04:07:53;20.40;99.90
8896;DHT22;4484;48.928;10.066;2022-07-23T04:10:20;20.40;99.90
8896;DHT22;4484;48.928;10.066;2022-07-23T04:12:47;20.40;99.90
8896;DHT22;4484;48.928;10.066;2022-07-23T04:15:14;20.40;99.90
8896;DHT22;4484;48.928;10.066;2022-07-23T04:17:41;20.30;99.90
8896;DHT22;4484;48.928;10.066;2022-07-23T04:20:11;20.30;99.90
8896;DHT22;4484;48.928;10.066;2022-07-23T04:22:45;20.30;99.90
8896;DHT22;4484;48.928;10.066;2022-07-23T04:25:12;20.20;99.90
8896;DHT22;4484;48.928;10.066;2022-07-23T04:27:40;20.20;99.90
8896;DHT22;4484;48.928;10.066;2022-07-23T04:30:07;20.20;99.90
8896;DHT22;4484;48.928;10.066;2022-07-23T04:32:35;20.20;99.90
8896;DHT22;4484;48.928;10.066;2022-07-23T04:35:05;20.10;99.90
8896;DHT22;4484;48.928;10.066;2022-07-23T04:37:32;20.10;99.90
8896;DHT22;4484;48.928;10.066;2022-07-23T04:39:59;20.10;99.90
8896;DHT22;4484;48.928;10.066;2022-07-23T04:42:26;20.10;99.90
8896;DHT22;4484;48.928;10.066;2022-07-23T04:44:53;20.10;99.90
8896;DHT22;4484;48.928;10.066;2022-07-23T04:47:20;20.00;99.90
8896;DHT22;4484;48.928;10.066;2022-07-23T04:49:49;20.10;99.90
8896;DHT22;4484;48.928;10.066;2022-07-23T04:52:17;20.20;99.90
8896;DHT22;4484;48.928;10.066;2022-07-23T04:54:43;20.30;99.90
8896;DHT22;4484;48.928;10.066;2022-07-23T04:57:14;20.20;99.90
8896;DHT22;4484;48.928;10.066;2022-07-23T04:59:41;20.30;99.90
8896;DHT22;4484;48.928;10.066;2022-07-23T05:02:09;20.30;99.90
8896;DHT22;4484;48.928;10.066;2022-07-23T05:04:36;20.30;99.90
8896;DHT22;4484;48.928;10.066;2022-07-23T05:07:03;20.30;99.90
8896;DHT22;4484;48.928;10.066;2022-07-23T05:09:31;20.30;99.90
8896;DHT22;4484;48.928;10.066;2022-07-23T05:11:58;20.30;99.90
8896;DHT22;4484;48.928;10.066;2022-07-23T05:14:25;20.30;99.90
8896;DHT22;4484;48.928;10.066;2022-07-23T05:16:52;20.30;99.90
8896;DHT22;4484;48.928;10.066;2022-07-23T05:19:22;20.40;99.90
8896;DHT22;4484;48.928;10.066;2022-07-23T05:21:51;20.30;99.90
8896;DHT22;4484;48.928;10.066;2022-07-23T05:24:18;20.40;99.90
8896;DHT22;4484;48.928;10.066;2022-07-23T05:26:45;20.40;99.90
8896;DHT22;4484;48.928;10.066;2022-07-23T05:29:12;20.50;99.90
8896;DHT22;4484;48.928;10.066;2022-07-23T05:31:39;20.50;99.90
8896;DHT22;4484;48.928;10.066;2022-07-23T05:34:06;20.60;99.90
8896;DHT22;4484;48.928;10.066;2022-07-23T05:36:35;20.70;99.90
8896;DHT22;4484;48.928;10.066;2022-07-23T05:39:03;20.80;99.90
8896;DHT22;4484;48.928;10.066;2022-07-23T05:41:34;20.90;99.90
8896;DHT22;4484;48.928;10.066;2022-07-23T05:44:02;21.10;99.90
8896;DHT22;4484;48.928;10.066;2022-07-23T05:46:30;21.20;99.90
8896;DHT22;4484;48.928;10.066;2022-07-23T05:49:02;21.40;99.90
8896;DHT22;4484;48.928;10.066;2022-07-23T05:52:06;21.50;99.90
8896;DHT22;4484;48.928;10.066;2022-07-23T05:54:51;21.70;99.90
8896;DHT22;4484;48.928;10.066;2022-07-23T05:57:18;21.80;99.90
8896;DHT22;4484;48.928;10.066;2022-07-23T05:59:51;21.80;99.90
8896;DHT22;4484;48.928;10.066;2022-07-23T06:02:17;21.80;99.90
8896;DHT22;4484;48.928;10.066;2022-07-23T06:04:44;21.80;99.90
8896;DHT22;4484;48.928;10.066;2022-07-23T06:07:33;21.80;99.90
8896;DHT22;4484;48.928;10.066;2022-07-23T06:10:00;21.80;99.90
8896;DHT22;4484;48.928;10.066;2022-07-23T06:12:27;21.90;99.90
8896;DHT22;4484;48.928;10.066;2022-07-23T06:14:54;21.90;99.90
8896;DHT22;4484;48.928;10.066;2022-07-23T06:17:21;22.00;99.90
8896;DHT22;4484;48.928;10.066;2022-07-23T06:19:49;22.10;99.90
8896;DHT22;4484;48.928;10.066;2022-07-23T06:22:18;22.10;99.90
8896;DHT22;4484;48.928;10.066;2022-07-23T06:24:45;22.20;99.90
8896;DHT22;4484;48.928;10.066;2022-07-23T06:27:12;22.20;99.90
8896;DHT22;4484;48.928;10.066;2022-07-23T06:29:39;22.20;99.90
8896;DHT22;4484;48.928;10.066;2022-07-23T06:32:07;22.20;99.90
8896;DHT22;4484;48.928;10.066;2022-07-23T06:34:34;22.20;99.90
8896;DHT22;4484;48.928;10.066;2022-07-23T06:37:01;22.30;99.90
8896;DHT22;4484;48.928;10.066;2022-07-23T06:39:28;22.30;99.90
8896;DHT22;4484;48.928;10.066;2022-07-23T06:41:57;22.40;99.90
8896;DHT22;4484;48.928;10.066;2022-07-23T06:44:36;22.60;99.90
8896;DHT22;4484;48.928;10.066;2022-07-23T06:47:06;23.00;99.90
8896;DHT22;4484;48.928;10.066;2022-07-23T06:49:33;23.30;99.90
8896;DHT22;4484;48.928;10.066;2022-07-23T06:52:00;23.40;99.90
8896;DHT22;4484;48.928;10.066;2022-07-23T06:54:27;23.50;99.90
8896;DHT22;4484;48.928;10.066;2022-07-23T06:56:54;23.50;99.90
8896;DHT22;4484;48.928;10.066;2022-07-23T06:59:20;23.50;99.90
8896;DHT22;4484;48.928;10.066;2022-07-23T07:01:47;23.50;99.90
8896;DHT22;4484;48.928;10.066;2022-07-23T07:04:14;23.50;99.90
8896;DHT22;4484;48.928;10.066;2022-07-23T07:06:42;23.40;99.90
8896;DHT22;4484;48.928;10.066;2022-07-23T07:09:09;23.40;99.90
8896;DHT22;4484;48.928;10.066;2022-07-23T07:11:36;23.50;99.90
8896;DHT22;4484;48.928;10.066;2022-07-23T07:14:04;23.60;99.90
8896;DHT22;4484;48.928;10.066;2022-07-23T07:16:30;23.70;99.90
8896;DHT22;4484;48.928;10.066;2022-07-23T07:18:58;24.00;99.90
8896;DHT22;4484;48.928;10.066;2022-07-23T07:21:26;24.50;99.90
8896;DHT22;4484;48.928;10.066;2022-07-23T07:23:53;25.10;99.90
8896;DHT22;4484;48.928;10.066;2022-07-23T07:26:21;25.70;99.90
8896;DHT22;4484;48.928;10.066;2022-07-23T07:28:47;26.30;99.90
8896;DHT22;4484;48.928;10.066;2022-07-23T07:31:14;26.80;99.90
8896;DHT22;4484;48.928;10.066;2022-07-23T07:33:41;27.30;99.90
8896;DHT22;4484;48.928;10.066;2022-07-23T07:36:08;27.60;99.90
8896;DHT22;4484;48.928;10.066;2022-07-23T07:38:36;27.60;99.90
8896;DHT22;4484;48.928;10.066;2022-07-23T07:41:03;27.90;99.90
8896;DHT22;4484;48.928;10.066;2022-07-23T07:43:29;28.40;99.90
8896;DHT22;4484;48.928;10.066;2022-07-23T07:45:56;28.90;98.50
8896;DHT22;4484;48.928;10.066;2022-07-23T07:48:24;29.60;98.60
8896;DHT22;4484;48.928;10.066;2022-07-23T07:50:57;30.00;95.10
8896;DHT22;4484;48.928;10.066;2022-07-23T07:53:27;30.30;92.60
8896;DHT22;4484;48.928;10.066;2022-07-23T07:56:19;30.10;90.90
8896;DHT22;4484;48.928;10.066;2022-07-23T07:58:46;29.70;91.20
8896;DHT22;4484;48.928;10.066;2022-07-23T08:01:13;29.40;92.00
8896;DHT22;4484;48.928;10.066;2022-07-23T08:03:41;29.00;91.50
8896;DHT22;4484;48.928;10.066;2022-07-23T08:06:08;28.60;91.30
8896;DHT22;4484;48.928;10.066;2022-07-23T08:08:41;28.10;91.40
8896;DHT22;4484;48.928;10.066;2022-07-23T08:11:08;27.70;92.00
8896;DHT22;4484;48.928;10.066;2022-07-23T08:13:36;27.30;93.10
8896;DHT22;4484;48.928;10.066;2022-07-23T08:16:03;27.10;94.60
8896;DHT22;4484;48.928;10.066;2022-07-23T08:18:35;27.00;95.60
8896;DHT22;4484;48.928;10.066;2022-07-23T08:21:03;27.00;96.10
8896;DHT22;4484;48.928;10.066;2022-07-23T08:23:33;27.10;96.90
8896;DHT22;4484;48.928;10.066;2022-07-23T08:25:59;27.20;96.90
8896;DHT22;4484;48.928;10.066;2022-07-23T08:28:27;27.30;95.80
8896;DHT22;4484;48.928;10.066;2022-07-23T08:30:54;27.60;95.60
8896;DHT22;4484;48.928;10.066;2022-07-23T08:33:21;27.80;96.40
8896;DHT22;4484;48.928;10.066;2022-07-23T08:36:01;27.80;95.70
8896;DHT22;4484;48.928;10.066;2022-07-23T08:38:30;27.60;94.90
8896;DHT22;4484;48.928;10.066;2022-07-23T08:40:57;27.30;94.90
8896;DHT22;4484;48.928;10.066;2022-07-23T08:43:28;26.90;94.90
8896;DHT22;4484;48.928;10.066;2022-07-23T08:45:58;26.70;95.50
8896;DHT22;4484;48.928;10.066;2022-07-23T08:48:34;26.40;95.90
8896;DHT22;4484;48.928;10.066;2022-07-23T08:51:05;26.20;96.20
8896;DHT22;4484;48.928;10.066;2022-07-23T08:53:34;26.10;96.50
8896;DHT22;4484;48.928;10.066;2022-07-23T08:56:06;25.90;96.40
8896;DHT22;4484;48.928;10.066;2022-07-23T08:58:35;25.80;96.90
8896;DHT22;4484;48.928;10.066;2022-07-23T09:01:02;25.80;97.90
8896;DHT22;4484;48.928;10.066;2022-07-23T09:03:33;25.80;98.40
8896;DHT22;4484;48.928;10.066;2022-07-23T09:06:00;25.80;98.20
8896;DHT22;4484;48.928;10.066;2022-07-23T09:08:37;25.80;98.20
8896;DHT22;4484;48.928;10.066;2022-07-23T09:11:27;25.80;98.10
8896;DHT22;4484;48.928;10.066;2022-07-23T09:13:53;25.90;98.40
8896;DHT22;4484;48.928;10.066;2022-07-23T09:16:26;26.00;98.60
8896;DHT22;4484;48.928;10.066;2022-07-23T09:26:43;26.90;97.50
8896;DHT22;4484;48.928;10.066;2022-07-23T09:31:54;27.30;95.90
8896;DHT22;4484;48.928;10.066;2022-07-23T09:34:33;27.40;95.40
8896;DHT22;4484;48.928;10.066;2022-07-23T09:37:15;27.30;95.30
8896;DHT22;4484;48.928;10.066;2022-07-23T09:39:44;27.20;94.80
8896;DHT22;4484;48.928;10.066;2022-07-23T09:42:26;27.20;95.30
8896;DHT22;4484;48.928;10.066;2022-07-23T09:44:56;27.20;94.90
8896;DHT22;4484;48.928;10.066;2022-07-23T09:47:27;27.20;94.70
8896;DHT22;4484;48.928;10.066;2022-07-23T09:50:08;27.00;93.70
8896;DHT22;4484;48.928;10.066;2022-07-23T09:52:43;26.90;94.10
8896;DHT22;4484;48.928;10.066;2022-07-23T09:55:11;27.00;93.30
8896;DHT22;4484;48.928;10.066;2022-07-23T09:57:44;27.00;93.50
8896;DHT22;4484;48.928;10.066;2022-07-23T10:00:13;27.10;93.30
8896;DHT22;4484;48.928;10.066;2022-07-23T10:02:40;27.30;92.40
8896;DHT22;4484;48.928;10.066;2022-07-23T10:05:29;27.70;92.70
8896;DHT22;4484;48.928;10.066;2022-07-23T10:08:17;28.30;92.20
8896;DHT22;4484;48.928;10.066;2022-07-23T10:11:03;29.00;92.70
8896;DHT22;4484;48.928;10.066;2022-07-23T10:13:37;29.70;93.00
8896;DHT22;4484;48.928;10.066;2022-07-23T10:16:13;30.10;91.10
8896;DHT22;4484;48.928;10.066;2022-07-23T10:18:52;30.70;85.30
8896;DHT22;4484;48.928;10.066;2022-07-23T10:21:34;31.30;86.40
8896;DHT22;4484;48.928;10.066;2022-07-23T10:27:31;32.60;79.80
8896;DHT22;4484;48.928;10.066;2022-07-23T10:30:20;33.20;77.30
8896;DHT22;4484;48.928;10.066;2022-07-23T10:33:09;33.50;76.30
8896;DHT22;4484;48.928;10.066;2022-07-23T10:36:09;34.20;80.50
8896;DHT22;4484;48.928;10.066;2022-07-23T10:38:58;34.80;75.00
8896;DHT22;4484;48.928;10.066;2022-07-23T10:41:35;35.30;69.00
8896;DHT22;4484;48.928;10.066;2022-07-23T10:44:20;35.40;70.70
8896;DHT22;4484;48.928;10.066;2022-07-23T10:47:00;35.50;70.70
8896;DHT22;4484;48.928;10.066;2022-07-23T10:49:36;35.50;69.00
8896;DHT22;4484;48.928;10.066;2022-07-23T10:52:28;35.50;69.00
8896;DHT22;4484;48.928;10.066;2022-07-23T10:57:25;34.00;64.70
8896;DHT22;4484;48.928;10.066;2022-07-23T11:02:38;33.70;71.60
8896;DHT22;4484;48.928;10.066;2022-07-23T11:05:10;34.00;68.30
8896;DHT22;4484;48.928;10.066;2022-07-23T11:10:37;34.40;71.00
8896;DHT22;4484;48.928;10.066;2022-07-23T11:24:11;33.90;68.80
8896;DHT22;4484;48.928;10.066;2022-07-23T11:31:56;33.50;70.70
8896;DHT22;4484;48.928;10.066;2022-07-23T11:34:42;33.20;69.60
8896;DHT22;4484;48.928;10.066;2022-07-23T11:37:12;33.30;71.00
8896;DHT22;4484;48.928;10.066;2022-07-23T11:39:39;33.60;71.70
8896;DHT22;4484;48.928;10.066;2022-07-23T11:42:07;34.10;67.40
8896;DHT22;4484;48.928;10.066;2022-07-23T11:44:38;34.60;67.20
8896;DHT22;4484;48.928;10.066;2022-07-23T11:47:10;35.30;68.80
8896;DHT22;4484;48.928;10.066;2022-07-23T11:49:38;35.70;65.50
8896;DHT22;4484;48.928;10.066;2022-07-23T11:54:37;35.40;59.70
8896;DHT22;4484;48.928;10.066;2022-07-23T11:57:12;34.70;62.90
8896;DHT22;4484;48.928;10.066;2022-07-23T11:59:40;34.10;64.30
8896;DHT22;4484;48.928;10.066;2022-07-23T12:02:09;33.80;65.10
8896;DHT22;4484;48.928;10.066;2022-07-23T12:04:46;33.80;66.30
8896;DHT22;4484;48.928;10.066;2022-07-23T12:07:43;33.80;63.40
8896;DHT22;4484;48.928;10.066;2022-07-23T12:15:15;35.50;65.30
8896;DHT22;4484;48.928;10.066;2022-07-23T12:17:45;36.20;62.70
8896;DHT22;4484;48.928;10.066;2022-07-23T12:20:20;36.30;62.50
8896;DHT22;4484;48.928;10.066;2022-07-23T12:22:49;36.00;60.40
8896;DHT22;4484;48.928;10.066;2022-07-23T12:25:18;35.50;60.10
8896;DHT22;4484;48.928;10.066;2022-07-23T12:28:07;34.80;59.30
8896;DHT22;4484;48.928;10.066;2022-07-23T12:30:47;34.30;61.00
8896;DHT22;4484;48.928;10.066;2022-07-23T12:33:22;34.10;63.00
8896;DHT22;4484;48.928;10.066;2022-07-23T12:35:51;34.50;66.60
8896;DHT22;4484;48.928;10.066;2022-07-23T12:38:20;34.60;63.00
8896;DHT22;4484;48.928;10.066;2022-07-23T12:40:58;34.40;63.00
8896;DHT22;4484;48.928;10.066;2022-07-23T12:43:35;34.20;62.90
8896;DHT22;4484;48.928;10.066;2022-07-23T12:51:29;34.20;62.90
8896;DHT22;4484;48.928;10.066;2022-07-23T12:54:03;34.40;64.20
8896;DHT22;4484;48.928;10.066;2022-07-23T12:56:33;34.40;62.30
8896;DHT22;4484;48.928;10.066;2022-07-23T13:01:35;34.90;63.60
8896;DHT22;4484;48.928;10.066;2022-07-23T13:04:12;34.70;62.70
8896;DHT22;4484;48.928;10.066;2022-07-23T13:06:43;34.70;62.70
8896;DHT22;4484;48.928;10.066;2022-07-23T13:09:23;34.90;62.80
8896;DHT22;4484;48.928;10.066;2022-07-23T13:11:52;35.20;63.70
8896;DHT22;4484;48.928;10.066;2022-07-23T13:14:23;35.50;64.60
8896;DHT22;4484;48.928;10.066;2022-07-23T13:16:53;35.90;65.60
8896;DHT22;4484;48.928;10.066;2022-07-23T13:19:23;36.00;62.40
8896;DHT22;4484;48.928;10.066;2022-07-23T13:21:54;35.80;62.00
8896;DHT22;4484;48.928;10.066;2022-07-23T13:24:22;35.60;61.70
8896;DHT22;4484;48.928;10.066;2022-07-23T13:26:49;35.50;60.40
8896;DHT22;4484;48.928;10.066;2022-07-23T13:29:18;35.50;60.30
8896;DHT22;4484;48.928;10.066;2022-07-23T13:31:46;35.50;59.10
8896;DHT22;4484;48.928;10.066;2022-07-23T13:34:14;35.50;58.80
8896;DHT22;4484;48.928;10.066;2022-07-23T13:36:41;35.40;58.10
8896;DHT22;4484;48.928;10.066;2022-07-23T13:39:10;35.30;57.60
8896;DHT22;4484;48.928;10.066;2022-07-23T13:41:38;35.20;60.00
8896;DHT22;4484;48.928;10.066;2022-07-23T13:44:06;35.10;60.40
8896;DHT22;4484;48.928;10.066;2022-07-23T13:46:34;35.00;61.50
8896;DHT22;4484;48.928;10.066;2022-07-23T13:49:03;35.00;60.00
8896;DHT22;4484;48.928;10.066;2022-07-23T13:51:32;35.00;59.20
8896;DHT22;4484;48.928;10.066;2022-07-23T13:53:59;35.10;59.10
8896;DHT22;4484;48.928;10.066;2022-07-23T13:56:26;35.10;58.90
8896;DHT22;4484;48.928;10.066;2022-07-23T13:58:53;35.00;60.00
8896;DHT22;4484;48.928;10.066;2022-07-23T14:01:19;34.70;60.30
8896;DHT22;4484;48.928;10.066;2022-07-23T14:03:47;34.30;61.30
8896;DHT22;4484;48.928;10.066;2022-07-23T14:06:14;34.30;61.20
8896;DHT22;4484;48.928;10.066;2022-07-23T14:08:43;34.10;60.30
8896;DHT22;4484;48.928;10.066;2022-07-23T14:11:11;34.20;59.90
8896;DHT22;4484;48.928;10.066;2022-07-23T14:13:38;34.30;61.40
8896;DHT22;4484;48.928;10.066;2022-07-23T14:16:07;34.40;60.10
8896;DHT22;4484;48.928;10.066;2022-07-23T14:18:33;34.40;60.00
8896;DHT22;4484;48.928;10.066;2022-07-23T14:21:01;34.30;60.20
8896;DHT22;4484;48.928;10.066;2022-07-23T14:23:29;34.10;57.80
8896;DHT22;4484;48.928;10.066;2022-07-23T14:25:56;34.10;59.40
8896;DHT22;4484;48.928;10.066;2022-07-23T14:28:24;34.10;59.30
8896;DHT22;4484;48.928;10.066;2022-07-23T14:30:51;34.10;60.60
8896;DHT22;4484;48.928;10.066;2022-07-23T14:33:18;34.30;61.60
8896;DHT22;4484;48.928;10.066;2022-07-23T14:35:47;34.30;59.30
8896;DHT22;4484;48.928;10.066;2022-07-23T14:38:13;34.40;59.40
8896;DHT22;4484;48.928;10.066;2022-07-23T14:40:41;34.20;59.50
8896;DHT22;4484;48.928;10.066;2022-07-23T14:43:09;34.10;60.30
8896;DHT22;4484;48.928;10.066;2022-07-23T14:45:38;34.10;61.30
8896;DHT22;4484;48.928;10.066;2022-07-23T14:48:05;33.90;60.10
8896;DHT22;4484;48.928;10.066;2022-07-23T14:50:34;33.70;60.50
8896;DHT22;4484;48.928;10.066;2022-07-23T14:53:01;33.40;62.70
8896;DHT22;4484;48.928;10.066;2022-07-23T14:55:31;33.30;63.30
8896;DHT22;4484;48.928;10.066;2022-07-23T14:57:58;33.10;64.60
8896;DHT22;4484;48.928;10.066;2022-07-23T15:00:26;33.00;63.70
8896;DHT22;4484;48.928;10.066;2022-07-23T15:02:54;33.00;64.20
8896;DHT22;4484;48.928;10.066;2022-07-23T15:05:22;32.90;63.50
8896;DHT22;4484;48.928;10.066;2022-07-23T15:07:51;32.90;63.70
8896;DHT22;4484;48.928;10.066;2022-07-23T15:10:18;33.10;65.30
8896;DHT22;4484;48.928;10.066;2022-07-23T15:12:48;33.10;63.70
8896;DHT22;4484;48.928;10.066;2022-07-23T15:15:16;32.90;63.00
8896;DHT22;4484;48.928;10.066;2022-07-23T15:17:44;32.90;63.30
8896;DHT22;4484;48.928;10.066;2022-07-23T15:20:12;33.00;64.50
8896;DHT22;4484;48.928;10.066;2022-07-23T15:22:43;32.80;63.90
8896;DHT22;4484;48.928;10.066;2022-07-23T15:25:11;32.50;66.50
8896;DHT22;4484;48.928;10.066;2022-07-23T15:27:38;32.50;65.60
8896;DHT22;4484;48.928;10.066;2022-07-23T15:30:07;32.60;65.90
8896;DHT22;4484;48.928;10.066;2022-07-23T15:32:34;32.60;64.50
8896;DHT22;4484;48.928;10.066;2022-07-23T15:35:01;32.70;65.90
8896;DHT22;4484;48.928;10.066;2022-07-23T15:37:34;32.60;63.00
8896;DHT22;4484;48.928;10.066;2022-07-23T15:40:02;32.40;63.60
8896;DHT22;4484;48.928;10.066;2022-07-23T15:42:31;32.10;63.60
8896;DHT22;4484;48.928;10.066;2022-07-23T15:44:58;32.00;64.50
8896;DHT22;4484;48.928;10.066;2022-07-23T15:47:26;31.80;65.40
8896;DHT22;4484;48.928;10.066;2022-07-23T15:49:53;31.40;65.70
8896;DHT22;4484;48.928;10.066;2022-07-23T15:52:22;31.20;66.50
8896;DHT22;4484;48.928;10.066;2022-07-23T15:54:49;31.00;68.60
8896;DHT22;4484;48.928;10.066;2022-07-23T15:57:16;30.80;68.40
8896;DHT22;4484;48.928;10.066;2022-07-23T15:59:45;30.60;67.90
8896;DHT22;4484;48.928;10.066;2022-07-23T16:02:13;30.40;67.70
8896;DHT22;4484;48.928;10.066;2022-07-23T16:04:40;30.20;68.30
8896;DHT22;4484;48.928;10.066;2022-07-23T16:07:07;30.10;68.80
8896;DHT22;4484;48.928;10.066;2022-07-23T16:09:41;29.90;68.00
8896;DHT22;4484;48.928;10.066;2022-07-23T16:12:11;29.70;68.50
8896;DHT22;4484;48.928;10.066;2022-07-23T16:14:38;29.60;69.00
8896;DHT22;4484;48.928;10.066;2022-07-23T16:17:05;29.60;70.60
8896;DHT22;4484;48.928;10.066;2022-07-23T16:19:32;29.70;70.90
8896;DHT22;4484;48.928;10.066;2022-07-23T16:21:59;29.90;69.10
8896;DHT22;4484;48.928;10.066;2022-07-23T16:24:26;30.00;67.70
8896;DHT22;4484;48.928;10.066;2022-07-23T16:26:53;30.10;67.80
8896;DHT22;4484;48.928;10.066;2022-07-23T16:29:20;30.10;67.30
8896;DHT22;4484;48.928;10.066;2022-07-23T16:31:48;30.20;67.10
8896;DHT22;4484;48.928;10.066;2022-07-23T16:34:14;30.20;67.00
8896;DHT22;4484;48.928;10.066;2022-07-23T16:36:41;30.20;67.10
8896;DHT22;4484;48.928;10.066;2022-07-23T16:39:08;30.10;67.20
8896;DHT22;4484;48.928;10.066;2022-07-23T16:41:36;29.80;64.90
8896;DHT22;4484;48.928;10.066;2022-07-23T16:44:03;29.50;65.80
8896;DHT22;4484;48.928;10.066;2022-07-23T16:46:30;29.20;68.10
8896;DHT22;4484;48.928;10.066;2022-07-23T16:48:57;29.00;69.20
8896;DHT22;4484;48.928;10.066;2022-07-23T16:51:24;28.80;70.40
8896;DHT22;4484;48.928;10.066;2022-07-23T16:53:51;28.60;70.50